WXM80 ListenWXM80 Stop

You find our weather info also at:

UK Metoffice

WeatherCloud

Weather Underground

Northeastern Weather Network

AWEKAS

Citizen Weather Observer Program (CWOP)

HAMweather, WeatherForYou, PWS Weather


Weather Underground History page Text

Daily Summary for March 1, 2017 Units:  Metric    English   Both
« Previous Day
Next Day »
Daily Weekly Monthly Yearly Custom
  High: Low: Average:
Temperature: 16.7 °C 11.2 °C 13.6 °C
Dew Point: 14.7 °C 10.4 °C 12.2 °C
Humidity: 97 % 78 % 92 %
Wind Speed: 16.3 km/h 0 km/h 6.3 km/h
Wind Gust: 29.6 km/h - -
Wind:- - SSW
Pressure: 1014.8 hPa 994.5 hPa -
Precipitation: 0.76 mm    
Historical Graphs
 
 
Tabular Data for March 1, 2017
Time Temperature Dew Point Pressure Wind Wind Speed Wind Gust Humidity Rainfall Rate (Hourly)
00:00 11.2 °C 10.4 °C 1014.8 hPa SSW 1.8 km/h 9.3 km/h 95 % 0 mm
00:05 11.3 °C 10.5 °C 1014.8 hPa South 3.2 km/h 7.4 km/h 95 % 0 mm
00:10 11.3 °C 10.6 °C 1014.4 hPa SSW 0.8 km/h 7.4 km/h 95 % 0 mm
00:15 11.3 °C 10.6 °C 1014.4 hPa South 5.1 km/h 11.1 km/h 95 % 0 mm
00:20 11.4 °C 10.6 °C 1014.1 hPa SSW 6.6 km/h 13 km/h 95 % 0 mm
00:25 11.4 °C 10.7 °C 1014.1 hPa SSW 3.9 km/h 11.3 km/h 95 % 0 mm
00:30 11.5 °C 10.7 °C 1014.1 hPa SSE 5.6 km/h 9.3 km/h 95 % 0 mm
00:36 11.6 °C 10.8 °C 1013.8 hPa South 6 km/h 11.1 km/h 95 % 0 mm
00:41 11.6 °C 10.8 °C 1013.8 hPa South 5.3 km/h 9.3 km/h 95 % 0 mm
00:46 11.7 °C 10.9 °C 1013.8 hPa SSE 4.5 km/h 9.3 km/h 95 % 0 mm
00:51 11.7 °C 10.9 °C 1013.8 hPa South 2.3 km/h 9.3 km/h 95 % 0 mm
00:56 11.7 °C 10.9 °C 1013.8 hPa South 2.9 km/h 9.7 km/h 95 % 0 mm
00:57 11.8 °C 11 °C 1013.8 hPa South 5.3 km/h 11.1 km/h 95 % 0 mm
01:02 11.8 °C 11 °C 1013.4 hPa South 6.6 km/h 9.3 km/h 95 % 0 mm
01:07 11.8 °C 11.1 °C 1013.4 hPa SSW 4.7 km/h 9.3 km/h 95 % 0 mm
01:12 11.8 °C 11.1 °C 1013.4 hPa SSE 9 km/h 14.8 km/h 95 % 0 mm
01:17 11.8 °C 11.1 °C 1013.4 hPa SSW 8 km/h 16.7 km/h 95 % 0 mm
01:22 11.8 °C 11.1 °C 1013.4 hPa SSW 7.2 km/h 18.5 km/h 95 % 0 mm
01:27 11.8 °C 11.1 °C 1013.4 hPa SSW 3.9 km/h 9.3 km/h 95 % 0 mm
01:32 11.9 °C 11.1 °C 1013.1 hPa SSW 7.9 km/h 16.7 km/h 95 % 0 mm
01:37 11.9 °C 11.1 °C 1013.1 hPa SSW 5.3 km/h 13 km/h 95 % 0 mm
01:43 11.9 °C 11.2 °C 1013.1 hPa SSW 7.1 km/h 16.7 km/h 95 % 0 mm
01:48 11.9 °C 11.2 °C 1013.1 hPa SSW 6.4 km/h 9.3 km/h 95 % 0 mm
01:53 12 °C 11.2 °C 1012.8 hPa South 6.3 km/h 9.3 km/h 95 % 0 mm
01:58 12 °C 11.2 °C 1013.1 hPa WSW 10.3 km/h 14.5 km/h 95 % 0 mm
02:03 12.1 °C 11.3 °C 1012.8 hPa SSW 9.7 km/h 20.9 km/h 95 % 0 mm
02:08 12.1 °C 11.3 °C 1012.8 hPa South 4.8 km/h 11.3 km/h 95 % 0 mm
02:13 12.1 °C 11.3 °C 1012.4 hPa SSW 4.8 km/h 14.5 km/h 95 % 0 mm
02:18 12.2 °C 11.4 °C 1012.4 hPa SSW 4.8 km/h 12.9 km/h 95 % 0 mm
02:23 12.2 °C 11.4 °C 1012.1 hPa South 8 km/h 14.5 km/h 95 % 0 mm
02:28 12.2 °C 11.4 °C 1011.7 hPa South 4.8 km/h 16.1 km/h 95 % 0 mm
02:33 12.2 °C 11.4 °C 1011.4 hPa South 9.7 km/h 20.9 km/h 95 % 0 mm
02:38 12.2 °C 11.4 °C 1011.4 hPa SSW 8 km/h 14.5 km/h 95 % 0 mm
02:43 12.2 °C 11.4 °C 1011.4 hPa South 4.8 km/h 14.5 km/h 95 % 0 mm
02:48 12.2 °C 11.4 °C 1011.1 hPa South 6.4 km/h 11.3 km/h 95 % 0 mm
02:53 12.2 °C 11.4 °C 1011.1 hPa South 4.8 km/h 19.3 km/h 95 % 0 mm
02:58 12.2 °C 11.4 °C 1010.7 hPa South 6.4 km/h 14.8 km/h 95 % 0 mm
03:03 12.2 °C 11.6 °C 1010.7 hPa SSE 6 km/h 18.5 km/h 96 % 0 mm
03:08 12.2 °C 11.4 °C 1010.7 hPa SSW 5.3 km/h 9.7 km/h 95 % 0 mm
03:13 12.2 °C 11.4 °C 1010.7 hPa SSW 4.8 km/h 13 km/h 95 % 0 mm
03:18 12.2 °C 11.4 °C 1010.4 hPa South 9.3 km/h 16.7 km/h 95 % 0 mm
03:23 12.2 °C 11.6 °C 1010.4 hPa South 2.4 km/h 13 km/h 96 % 0 mm
03:28 12.2 °C 11.6 °C 1010.4 hPa SSW 9.7 km/h 18.5 km/h 96 % 0 mm
03:33 12.2 °C 11.6 °C 1010.4 hPa SSW 7.9 km/h 13 km/h 96 % 0 mm
03:38 12.2 °C 11.6 °C 1010.4 hPa South 10.1 km/h 13 km/h 96 % 0 mm
03:43 12.2 °C 11.6 °C 1010 hPa South 6.1 km/h 16.7 km/h 96 % 0 mm
03:48 12.3 °C 11.7 °C 1010.4 hPa South 8.5 km/h 11.1 km/h 96 % 0 mm
03:53 12.3 °C 11.7 °C 1010.4 hPa South 4.2 km/h 9.3 km/h 96 % 0 mm
03:58 12.3 °C 11.7 °C 1010.4 hPa South 8.9 km/h 13 km/h 96 % 0 mm
04:04 12.3 °C 11.7 °C 1010.7 hPa SW 9 km/h 14.8 km/h 96 % 0 mm
04:09 12.3 °C 11.7 °C 1010.7 hPa SW 10.3 km/h 18.5 km/h 96 % 0 mm
04:14 12.3 °C 11.7 °C 1010.7 hPa SSW 4.5 km/h 5.6 km/h 96 % 0 mm
04:19 12.3 °C 11.7 °C 1010.4 hPa South 7.1 km/h 9.3 km/h 96 % 0 mm
04:24 12.3 °C 11.7 °C 1010.4 hPa SW 8.2 km/h 11.1 km/h 96 % 0 mm
04:29 12.3 °C 11.7 °C 1010.4 hPa South 4.5 km/h 6.4 km/h 96 % 0 mm
04:34 12.3 °C 11.7 °C 1010.4 hPa South 4.7 km/h 8 km/h 96 % 0 mm
04:39 12.3 °C 11.7 °C 1010 hPa SSW 6.4 km/h 11.3 km/h 96 % 0 mm
04:44 12.2 °C 11.6 °C 1010 hPa South 7.4 km/h 13 km/h 96 % 0 mm
04:49 12.2 °C 11.6 °C 1010 hPa SSW 4.3 km/h 11.1 km/h 96 % 0 mm
04:54 12.2 °C 11.6 °C 1010 hPa SSW 6.8 km/h 11.1 km/h 96 % 0 mm
04:59 12.1 °C 11.5 °C 1009.7 hPa SW 5.8 km/h 9.3 km/h 96 % 0 mm
05:04 12.1 °C 11.5 °C 1010 hPa South 3.5 km/h 5.6 km/h 96 % 0 mm
05:09 12.1 °C 11.4 °C 1010 hPa SSW 8.2 km/h 13 km/h 96 % 0 mm
05:14 12.1 °C 11.5 °C 1009.7 hPa SSW 4.2 km/h 9.3 km/h 96 % 0 mm
05:19 12.1 °C 11.5 °C 1009.7 hPa SSW 5.1 km/h 7.4 km/h 96 % 0 mm
05:24 12.2 °C 11.6 °C 1009.4 hPa SSW 7.6 km/h 11.1 km/h 96 % 0 mm
05:30 12.2 °C 11.6 °C 1009.4 hPa South 4.8 km/h 9.3 km/h 96 % 0 mm
05:35 12.2 °C 11.6 °C 1009.4 hPa South 3.2 km/h 7.4 km/h 96 % 0 mm
05:40 12.2 °C 11.6 °C 1009.4 hPa South 4.3 km/h 5.6 km/h 96 % 0 mm
05:41 12.2 °C 11.6 °C 1009.4 hPa South 2.3 km/h 7.4 km/h 96 % 0 mm
05:46 12.2 °C 11.6 °C 1009 hPa South 2.1 km/h 5.6 km/h 96 % 0 mm
05:51 12.2 °C 11.6 °C 1009 hPa SSE 2.6 km/h 5.6 km/h 96 % 0 mm
05:56 12.2 °C 11.6 °C 1009 hPa South 0.8 km/h 5.6 km/h 96 % 0 mm
06:01 12.2 °C 11.6 °C 1009 hPa South 2.3 km/h 5.6 km/h 96 % 0 mm
06:06 12.2 °C 11.6 °C 1009 hPa South 3.7 km/h 5.6 km/h 96 % 0 mm
06:11 12.2 °C 11.6 °C 1009 hPa South 0.6 km/h 4.8 km/h 96 % 0 mm
06:16 12.1 °C 11.5 °C 1008.7 hPa Calm   3.7 km/h 96 % 0 mm
06:21 12.2 °C 11.6 °C 1008.4 hPa South 0.6 km/h 1.9 km/h 96 % 0 mm
06:26 12.2 °C 11.6 °C 1008 hPa South 0.5 km/h 5.6 km/h 96 % 0 mm
06:31 12.2 °C 11.6 °C 1008 hPa South 1 km/h 3.7 km/h 96 % 0 mm
06:36 12.2 °C 11.6 °C 1007.7 hPa South 3.7 km/h 8 km/h 96 % 0 mm
06:41 12.2 °C 11.6 °C 1007.7 hPa South 2.7 km/h 5.6 km/h 96 % 0 mm
06:46 12.3 °C 11.7 °C 1007.7 hPa South 6.3 km/h 13 km/h 96 % 0 mm
06:51 12.4 °C 11.9 °C 1007.7 hPa SW 4.7 km/h 6.4 km/h 97 % 0 mm
06:56 12.5 °C 12.1 °C 1007.7 hPa SW 4 km/h 5.6 km/h 97 % 0 mm
07:01 12.6 °C 12.1 °C 1007.7 hPa South 1.3 km/h 5.6 km/h 97 % 0 mm
07:06 12.6 °C 12.2 °C 1007.7 hPa South 2.9 km/h 5.6 km/h 97 % 0 mm
07:11 12.6 °C 12.2 °C 1007.3 hPa South 3.5 km/h 9.3 km/h 97 % 0 mm
07:17 12.6 °C 12.2 °C 1007.3 hPa South 5.1 km/h 9.3 km/h 97 % 0 mm
07:22 12.6 °C 12.2 °C 1007.3 hPa SSW 2.9 km/h 7.4 km/h 97 % 0 mm
07:27 12.6 °C 12.1 °C 1007.3 hPa SSW 5.6 km/h 11.1 km/h 97 % 0 mm
07:32 12.6 °C 11.9 °C 1007.3 hPa SSW 6.1 km/h 7.4 km/h 96 % 0 mm
07:37 12.5 °C 11.9 °C 1007 hPa SSE 6 km/h 9.3 km/h 96 % 0 mm
07:42 12.3 °C 11.7 °C 1007 hPa South 4.7 km/h 7.4 km/h 96 % 0 mm
07:47 12.3 °C 11.7 °C 1007.3 hPa South 5.5 km/h 7.4 km/h 96 % 0 mm
07:52 12.2 °C 11.6 °C 1007 hPa South 3.7 km/h 11.1 km/h 96 % 0 mm
07:57 12.1 °C 11.4 °C 1006.7 hPa SSE 1.3 km/h 5.6 km/h 96 % 0 mm
08:02 12 °C 11.4 °C 1007 hPa SSE 3.5 km/h 5.6 km/h 96 % 0 mm
08:07 11.9 °C 11.3 °C 1006.7 hPa SE 0.6 km/h 5.6 km/h 96 % 0 mm
08:12 11.8 °C 11.2 °C 1006.7 hPa SSE 4.2 km/h 8 km/h 96 % 0 mm
08:17 11.8 °C 11.2 °C 1006.7 hPa SSE 1.4 km/h 4.8 km/h 96 % 0 mm
08:22 11.8 °C 11.2 °C 1006.7 hPa South 3.1 km/h 7.4 km/h 96 % 0 mm
08:27 11.8 °C 11.2 °C 1006.7 hPa South 0.8 km/h 5.6 km/h 96 % 0 mm
08:32 11.8 °C 11.2 °C 1006.3 hPa SSE 0.3 km/h 3.7 km/h 96 % 0 mm
08:37 11.8 °C 11.2 °C 1006.7 hPa South 1.6 km/h 5.6 km/h 96 % 0 mm
08:42 11.8 °C 11.2 °C 1006.7 hPa South 0.6 km/h 3.7 km/h 96 % 0 mm
08:47 11.9 °C 11.3 °C 1006.7 hPa Calm     96 % 0 mm
08:52 11.9 °C 11.3 °C 1006.3 hPa SSE 1.8 km/h 3.7 km/h 96 % 0 mm
08:57 12 °C 11.4 °C 1006.3 hPa SW 3.5 km/h 5.6 km/h 96 % 0 mm
09:02 12.1 °C 11.6 °C 1006.3 hPa SW 4 km/h 5.6 km/h 97 % 0 mm
09:07 12.1 °C 11.7 °C 1005.6 hPa SSE 4.2 km/h 11.1 km/h 97 % 0 mm
09:12 12.1 °C 11.5 °C 1005.6 hPa SSW 4.2 km/h 7.4 km/h 96 % 0 mm
09:18 12.1 °C 11.5 °C 1005.6 hPa SSE 0.5 km/h 3.2 km/h 96 % 0 mm
09:23 12.1 °C 11.4 °C 1005.3 hPa SSE 3.7 km/h 9.3 km/h 96 % 0 mm
09:28 12 °C 11.4 °C 1005 hPa ESE 0.3 km/h 3.7 km/h 96 % 0 mm
09:33 12 °C 11.4 °C 1005 hPa SSE 2.6 km/h 5.6 km/h 96 % 0 mm
09:38 12 °C 11.4 °C 1005.3 hPa SSE 0.3 km/h 1.9 km/h 96 % 0 mm
09:43 11.9 °C 11.3 °C 1005.3 hPa SSW 2.6 km/h 3.7 km/h 96 % 0 mm
09:48 11.9 °C 11.3 °C 1005.3 hPa Calm   1.9 km/h 96 % 0 mm
09:53 11.9 °C 11.3 °C 1005.3 hPa SSE 1.6 km/h 3.7 km/h 96 % 0 mm
09:58 11.9 °C 11.3 °C 1005.6 hPa South 0.8 km/h 3.7 km/h 96 % 0 mm
10:03 11.9 °C 11.3 °C 1005.6 hPa SW 0.2 km/h 5.6 km/h 96 % 0 mm
10:08 12 °C 11.4 °C 1005.6 hPa SW 7.9 km/h 8 km/h 96 % 0 mm
10:13 12 °C 11.4 °C 1005.3 hPa SSW 3.9 km/h 7.4 km/h 96 % 0 mm
10:18 12.1 °C 11.4 °C 1005 hPa SW 1.6 km/h 6.4 km/h 96 % 0 mm
10:23 12.1 °C 11.4 °C 1004.6 hPa WSW 1.6 km/h 4.8 km/h 96 % 0 mm
10:28 12.1 °C 11.4 °C 1004.6 hPa WSW 0.2 km/h 3.7 km/h 96 % 0 mm
10:33 12.1 °C 11.4 °C 1004.6 hPa WSW 1.6 km/h 4.8 km/h 96 % 0 mm
10:38 12.1 °C 11.5 °C 1004.6 hPa Calm   4.8 km/h 96 % 0 mm
10:43 12.1 °C 11.5 °C 1005.3 hPa WSW 3.2 km/h 8 km/h 96 % 0 mm
10:48 12.1 °C 11.5 °C 1005 hPa WSW 1.6 km/h 8 km/h 96 % 0 mm
10:53 12.1 °C 11.5 °C 1005 hPa SW 1.6 km/h 6.4 km/h 96 % 0 mm
10:58 12.1 °C 11.5 °C 1004.6 hPa WSW 1 km/h 7.4 km/h 96 % 0 mm
11:03 12.1 °C 11.5 °C 1004.6 hPa WSW 0.8 km/h 3.7 km/h 96 % 0 mm
11:08 12.2 °C 11.6 °C 1004.6 hPa SW 0.3 km/h 1.9 km/h 96 % 0 mm
11:09 12.2 °C 11.6 °C 1004.6 hPa SW 1.1 km/h 5.6 km/h 96 % 0 mm
11:14 12.3 °C 11.7 °C 1004.6 hPa South 1.1 km/h 3.7 km/h 96 % 0 mm
11:19 12.4 °C 11.8 °C 1004.6 hPa South 3.9 km/h 5.6 km/h 96 % 0 mm
11:24 12.5 °C 11.9 °C 1004.6 hPa SSW 8.9 km/h 16.7 km/h 96 % 0 mm
11:26 12.6 °C 11.9 °C 1004.6 hPa SSW 8.5 km/h 16.1 km/h 96 % 0 mm
11:31 12.6 °C 11.9 °C 1004.3 hPa SW 1.1 km/h 4.8 km/h 96 % 0 mm
11:36 12.6 °C 12 °C 1003.9 hPa SW 5 km/h 7.4 km/h 96 % 0.25 mm
11:41 12.7 °C 12.1 °C 1003.9 hPa SSW 4 km/h 5.6 km/h 96 % 0.25 mm
11:46 12.7 °C 12.1 °C 1003.9 hPa SSW 5.8 km/h 5.8 km/h 96 % 0.25 mm
11:51 12.8 °C 12.2 °C 1003.9 hPa SSW 4.3 km/h 7.4 km/h 96 % 0.25 mm
11:56 12.8 °C 12.2 °C 1003.3 hPa SSE 1.6 km/h 3.7 km/h 96 % 0.25 mm
12:01 12.8 °C 12.2 °C 1002.6 hPa South 0.6 km/h 5.6 km/h 96 % 0.25 mm
12:06 12.9 °C 12.3 °C 1002.6 hPa SW 2.6 km/h 5.6 km/h 96 % 0.51 mm
12:08 12.9 °C 12.3 °C 1002.9 hPa SSW 2.7 km/h 3.7 km/h 96 % 0.51 mm
12:13 12.9 °C 12.3 °C 1002.6 hPa SW 1 km/h 5.6 km/h 96 % 0.51 mm
12:18 13.1 °C 12.4 °C 1002.3 hPa SW 1.6 km/h 4.8 km/h 96 % 0 mm
12:23 13.2 °C 12.7 °C 1001.2 hPa SSW 3.2 km/h 8 km/h 97 % 0 mm
12:28 13.3 °C 12.8 °C 1000.9 hPa South 1.6 km/h 8 km/h 97 % 0 mm
12:33 13.4 °C 13 °C 1001.2 hPa South 4.8 km/h 7.4 km/h 97 % 0.76 mm
12:38 13.6 °C 13.1 °C 1000.9 hPa South 3.2 km/h 8 km/h 97 % 0 mm
12:43 13.6 °C 13.1 °C 1000.9 hPa South 3.2 km/h 14.5 km/h 97 % 0 mm
12:48 13.5 °C 13.1 °C 1001.2 hPa South 3.2 km/h 9.7 km/h 97 % 0 mm
12:53 13.6 °C 13.1 °C 1000.9 hPa South 4.7 km/h 5.6 km/h 97 % 0.51 mm
12:54 13.6 °C 13.1 °C 1000.9 hPa South 4.3 km/h 8 km/h 97 % 0.51 mm
12:59 13.6 °C 13.2 °C 1000.9 hPa SSW 4.3 km/h 11.3 km/h 97 % 0.51 mm
13:05 13.8 °C 13.3 °C 1000.6 hPa South 5.5 km/h 11.1 km/h 97 % 0.25 mm
13:10 14.1 °C 13.7 °C 1000.6 hPa South 4.8 km/h 7.4 km/h 97 % 0.25 mm
13:15 14.3 °C 13.9 °C 1000.2 hPa SSW 4.8 km/h 9.7 km/h 97 % 0.25 mm
13:20 14.6 °C 14.1 °C 1000.2 hPa South 6.1 km/h 11.1 km/h 97 % 0.25 mm
13:25 14.7 °C 14.3 °C 999.9 hPa South 6.9 km/h 11.1 km/h 97 % 0.25 mm
13:30 15.2 °C 14.7 °C 999.9 hPa South 3.5 km/h 9.3 km/h 97 % 0.25 mm
13:35 15.2 °C 14.4 °C 999.5 hPa South 9.2 km/h 18.5 km/h 95 % 0 mm
13:40 15.2 °C 14.3 °C 999.5 hPa SSE 9.2 km/h 18.5 km/h 94 % 0 mm
13:45 15.3 °C 14.2 °C 999.2 hPa South 10 km/h 18.5 km/h 93 % 0 mm
13:50 15.4 °C 14.1 °C 999.2 hPa SSW 9.8 km/h 16.7 km/h 92 % 0 mm
13:55 15.4 °C 13.9 °C 999.2 hPa South 11.1 km/h 18.5 km/h 91 % 0 mm
14:00 15.3 °C 13.9 °C 999.2 hPa SSW 12.9 km/h 22.2 km/h 91 % 0 mm
14:06 15.3 °C 13.8 °C 999.2 hPa South 7.4 km/h 9.7 km/h 91 % 0 mm
14:08 15.3 °C 13.8 °C 999.2 hPa South 11.3 km/h 25.7 km/h 91 % 0 mm
14:13 15.4 °C 13.9 °C 999.2 hPa SSW 8 km/h 19.3 km/h 91 % 0 mm
14:18 15.4 °C 13.9 °C 999.2 hPa SSW 8 km/h 16.1 km/h 91 % 0 mm
14:23 15.3 °C 13.9 °C 999.2 hPa SSW 8 km/h 19.3 km/h 91 % 0 mm
14:28 15.3 °C 13.9 °C 999.2 hPa SSW 11.3 km/h 20.9 km/h 91 % 0 mm
14:33 15.2 °C 13.8 °C 998.9 hPa SW 8 km/h 14.8 km/h 91 % 0 mm
14:38 15.2 °C 13.8 °C 998.9 hPa SSW 4.8 km/h 19.3 km/h 91 % 0 mm
14:43 15.3 °C 13.8 °C 998.5 hPa SSW 9 km/h 13 km/h 91 % 0 mm
14:48 15.3 °C 13.9 °C 998.5 hPa South 9.7 km/h 16.1 km/h 91 % 0 mm
14:53 15.4 °C 13.8 °C 998.5 hPa SSW 5.8 km/h 16.7 km/h 90 % 0 mm
14:58 15.4 °C 13.8 °C 998.2 hPa SSW 5.5 km/h 14.8 km/h 90 % 0 mm
15:03 15.6 °C 13.9 °C 998.2 hPa SW 9.3 km/h 14.8 km/h 90 % 0 mm
15:08 15.7 °C 14.1 °C 998.2 hPa South 12.6 km/h 18.5 km/h 90 % 0 mm
15:13 15.8 °C 14.2 °C 998.2 hPa SSW 6 km/h 11.1 km/h 90 % 0 mm
15:18 16 °C 14.2 °C 998.2 hPa SSW 11.7 km/h 18.5 km/h 89 % 0 mm
15:23 16.2 °C 14.2 °C 998.2 hPa SW 10.8 km/h 22.2 km/h 88 % 0 mm
15:28 16.2 °C 14.2 °C 998.2 hPa SW 5.6 km/h 14.8 km/h 88 % 0 mm
15:33 16.3 °C 14.3 °C 998.2 hPa SSW 14.6 km/h 22.5 km/h 88 % 0 mm
15:38 16.4 °C 14.3 °C 998.2 hPa SW 13.4 km/h 18.5 km/h 87 % 0 mm
15:43 16.5 °C 14.3 °C 998.2 hPa SSW 8.5 km/h 16.7 km/h 87 % 0 mm
15:49 16.6 °C 14.4 °C 998.2 hPa SSW 10.9 km/h 16.1 km/h 87 % 0 mm
15:54 16.7 °C 14.5 °C 998.2 hPa SSW 7.7 km/h 13 km/h 87 % 0 mm
15:59 16.7 °C 14.3 °C 997.9 hPa South 3.2 km/h 14.8 km/h 86 % 0 mm
16:04 16.7 °C 14.3 °C 997.5 hPa South 8.2 km/h 16.1 km/h 86 % 0 mm
16:09 16.7 °C 14.3 °C 997.5 hPa SSW 5.1 km/h 11.3 km/h 86 % 0 mm
16:14 16.6 °C 14.3 °C 997.2 hPa South 8.7 km/h 14.8 km/h 86 % 0 mm
16:19 16.6 °C 14.2 °C 996.5 hPa South 8.9 km/h 18.5 km/h 86 % 0 mm
16:24 16.4 °C 13.8 °C 995.5 hPa South 9.3 km/h 16.7 km/h 85 % 0 mm
16:29 16.3 °C 13.9 °C 996.2 hPa SSW 11.7 km/h 22.2 km/h 86 % 0 mm
16:34 16.2 °C 13.8 °C 995.5 hPa SSW 10.8 km/h 14.8 km/h 86 % 0 mm
16:39 15.9 °C 13.6 °C 995.1 hPa SSW 8.9 km/h 14.8 km/h 86 % 0 mm
16:44 15.7 °C 13.4 °C 995.1 hPa South 11.3 km/h 16.7 km/h 86 % 0 mm
16:49 15.6 °C 13.2 °C 995.1 hPa South 13.7 km/h 20.4 km/h 86 % 0 mm
16:54 15.3 °C 13.2 °C 995.1 hPa SSW 9.8 km/h 22.2 km/h 87 % 0 mm
17:00 15.2 °C 13 °C 995.1 hPa SSW 10.8 km/h 18.5 km/h 87 % 0 mm
17:05 15.1 °C 13.1 °C 995.1 hPa SSW 14.2 km/h 20.4 km/h 88 % 0 mm
17:11 15 °C 13 °C 995.1 hPa SW 12.1 km/h 18.5 km/h 88 % 0 mm
17:16 14.9 °C 12.9 °C 995.5 hPa South 9.3 km/h 20.4 km/h 88 % 0 mm
17:21 14.8 °C 12.8 °C 995.5 hPa SW 13 km/h 22.2 km/h 88 % 0 mm
17:26 14.7 °C 12.9 °C 995.5 hPa SSW 13.5 km/h 25.9 km/h 89 % 0 mm
17:31 14.6 °C 12.8 °C 995.5 hPa SSE 12.6 km/h 27.8 km/h 89 % 0 mm
17:36 14.7 °C 13.1 °C 995.5 hPa South 11.3 km/h 27.8 km/h 90 % 0 mm
17:41 14.7 °C 13.1 °C 995.5 hPa SW 14 km/h 24.1 km/h 90 % 0 mm
17:47 14.8 °C 13.2 °C 995.5 hPa South 10.6 km/h 18.5 km/h 90 % 0 mm
17:52 14.8 °C 13.2 °C 995.5 hPa SW 13 km/h 18.5 km/h 90 % 0 mm
17:57 14.9 °C 13.3 °C 995.8 hPa SSW 10.5 km/h 18.5 km/h 90 % 0 mm
18:02 15.1 °C 13.4 °C 995.8 hPa South 11.3 km/h 22.2 km/h 90 % 0 mm
18:07 15.1 °C 13.5 °C 995.8 hPa South 11.6 km/h 18.5 km/h 90 % 0 mm
18:12 15.1 °C 13.3 °C 995.8 hPa South 10.5 km/h 14.8 km/h 89 % 0 mm
18:17 15.1 °C 13.3 °C 996.2 hPa SSW 10.8 km/h 20.4 km/h 89 % 0 mm
18:22 15.1 °C 13.3 °C 995.8 hPa SSW 11.4 km/h 18.5 km/h 89 % 0 mm
18:27 15.2 °C 13.4 °C 996.2 hPa SSW 7.7 km/h 16.7 km/h 89 % 0 mm
18:32 15.3 °C 13.3 °C 996.2 hPa SSW 8.2 km/h 19.3 km/h 88 % 0 mm
18:37 15.3 °C 13.3 °C 995.8 hPa South 11.6 km/h 20.4 km/h 88 % 0 mm
18:42 15.5 °C 13.5 °C 995.8 hPa SSW 7.4 km/h 13 km/h 88 % 0 mm
18:47 15.6 °C 13.4 °C 995.8 hPa SSW 15.3 km/h 20.9 km/h 87 % 0 mm
18:53 15.7 °C 13.3 °C 995.8 hPa SSE 7.4 km/h 14.8 km/h 86 % 0 mm
18:58 15.7 °C 13.3 °C 995.8 hPa South 10.9 km/h 18.5 km/h 86 % 0 mm
19:03 15.7 °C 13.3 °C 995.8 hPa South 9.2 km/h 18.5 km/h 86 % 0 mm
19:08 15.7 °C 13.3 °C 996.2 hPa SSW 16.3 km/h 22.2 km/h 86 % 0 mm
19:13 15.7 °C 13.3 °C 996.2 hPa SSW 13.8 km/h 29.6 km/h 86 % 0 mm
19:18 15.7 °C 13.2 °C 996.2 hPa SW 14.8 km/h 24.1 km/h 85 % 0 mm
19:23 15.8 °C 13.3 °C 996.2 hPa South 11.3 km/h 22.5 km/h 85 % 0 mm
19:28 15.8 °C 13.1 °C 996.2 hPa South 9.7 km/h 19.3 km/h 84 % 0 mm
19:33 15.8 °C 13.1 °C 996.5 hPa SSW 11.3 km/h 19.3 km/h 84 % 0 mm
19:38 15.8 °C 13.1 °C 996.2 hPa SSW 4.8 km/h 20.9 km/h 84 % 0 mm
19:43 15.8 °C 13.1 °C 996.2 hPa SSW 8 km/h 14.5 km/h 84 % 0 mm
19:48 15.8 °C 13.1 °C 995.8 hPa SSW 7.7 km/h 18.5 km/h 84 % 0 mm
19:53 15.8 °C 13.1 °C 996.2 hPa SSW 4.8 km/h 12.9 km/h 84 % 0 mm
19:58 15.8 °C 13.1 °C 996.5 hPa South 8.5 km/h 14.8 km/h 84 % 0 mm
20:03 15.7 °C 13 °C 996.2 hPa South 9.7 km/h 19.3 km/h 84 % 0 mm
20:08 15.6 °C 12.9 °C 996.2 hPa SW 8.7 km/h 14.8 km/h 84 % 0 mm
20:13 15.4 °C 12.7 °C 996.2 hPa SSW 4.8 km/h 16.1 km/h 84 % 0 mm
20:18 15.3 °C 12.4 °C 995.8 hPa SSW 8.5 km/h 11.1 km/h 83 % 0 mm
20:23 15.2 °C 12.3 °C 996.2 hPa SSW 8 km/h 24.1 km/h 83 % 0 mm
20:28 15.2 °C 12.1 °C 996.5 hPa SSW 6.6 km/h 14.8 km/h 82 % 0 mm
20:33 15.1 °C 12.1 °C 996.2 hPa SSW 8 km/h 16.1 km/h 82 % 0 mm
20:38 15.1 °C 12 °C 996.2 hPa SSW 5.3 km/h 14.8 km/h 82 % 0 mm
20:43 15 °C 11.9 °C 996.2 hPa SSW 3.2 km/h 14.5 km/h 82 % 0 mm
20:48 14.9 °C 12.1 °C 995.8 hPa SSW 8 km/h 19.3 km/h 83 % 0 mm
20:53 14.9 °C 12.1 °C 995.5 hPa South 8 km/h 14.5 km/h 83 % 0 mm
20:58 14.9 °C 12 °C 996.2 hPa SSW 3.7 km/h 7.4 km/h 83 % 0 mm
21:03 14.8 °C 11.9 °C 995.8 hPa SSW 7.9 km/h 11.3 km/h 83 % 0 mm
21:08 14.8 °C 11.9 °C 995.8 hPa South 6.6 km/h 11.1 km/h 83 % 0 mm
21:13 14.7 °C 11.9 °C 995.8 hPa SSW 9.5 km/h 14.8 km/h 83 % 0 mm
21:18 14.7 °C 11.9 °C 995.8 hPa SSW 6.3 km/h 11.1 km/h 83 % 0 mm
21:29 14.7 °C 11.8 °C 995.8 hPa South 7.1 km/h 16.7 km/h 83 % 0 mm
21:34 14.7 °C 11.8 °C 995.5 hPa SSW 7.7 km/h 12.9 km/h 83 % 0 mm
21:39 14.6 °C 11.6 °C 995.5 hPa SSW 12.1 km/h 18.5 km/h 82 % 0 mm
21:44 14.7 °C 11.6 °C 995.5 hPa South 6 km/h 9.3 km/h 82 % 0 mm
21:49 14.7 °C 11.7 °C 995.5 hPa South 5 km/h 11.1 km/h 82 % 0 mm
21:54 14.7 °C 11.7 °C 995.1 hPa SSW 8.4 km/h 9.3 km/h 82 % 0 mm
21:59 14.7 °C 11.5 °C 995.1 hPa SSW 7.9 km/h 11.3 km/h 81 % 0 mm
22:04 14.7 °C 11.5 °C 995.1 hPa SW 4.5 km/h 13 km/h 81 % 0 mm
22:09 14.7 °C 11.4 °C 994.8 hPa SSW 4.8 km/h 9.3 km/h 81 % 0 mm
22:14 14.6 °C 11.3 °C 994.8 hPa SSW 3.7 km/h 18.5 km/h 81 % 0 mm
22:19 14.6 °C 11.3 °C 994.8 hPa SSW 7.7 km/h 13 km/h 81 % 0 mm
22:24 14.6 °C 11.3 °C 994.8 hPa SSE 7.2 km/h 13 km/h 81 % 0 mm
22:29 14.6 °C 11.3 °C 994.8 hPa WSW 5.3 km/h 9.7 km/h 81 % 0 mm
22:34 14.6 °C 11.3 °C 995.1 hPa SSW 9.3 km/h 14.8 km/h 81 % 0 mm
22:40 14.6 °C 11.2 °C 995.1 hPa South 5.3 km/h 11.1 km/h 80 % 0 mm
22:45 14.6 °C 11.2 °C 995.1 hPa SSW 8.7 km/h 14.8 km/h 80 % 0 mm
22:50 14.5 °C 11.1 °C 995.1 hPa South 7.9 km/h 9.3 km/h 80 % 0 mm
22:55 14.4 °C 11.1 °C 995.1 hPa SW 6.3 km/h 11.1 km/h 80 % 0 mm
23:01 14.4 °C 11.1 °C 995.1 hPa WSW 12.2 km/h 18.5 km/h 80 % 0 mm
23:06 14.4 °C 10.8 °C 995.1 hPa South 7.9 km/h 18.5 km/h 79 % 0 mm
23:11 14.4 °C 10.8 °C 994.8 hPa SW 8.4 km/h 14.8 km/h 79 % 0 mm
23:16 14.4 °C 10.8 °C 994.8 hPa SSW 10.9 km/h 18.5 km/h 79 % 0 mm
23:21 14.4 °C 10.8 °C 994.8 hPa SSW 7.6 km/h 14.8 km/h 79 % 0 mm
23:26 14.4 °C 10.8 °C 994.8 hPa South 10.5 km/h 18.5 km/h 79 % 0 mm
23:31 14.5 °C 10.9 °C 994.5 hPa SSW 10.5 km/h 14.8 km/h 79 % 0 mm
23:36 14.6 °C 10.9 °C 994.8 hPa SW 6.9 km/h 11.1 km/h 79 % 0 mm
23:41 14.6 °C 10.8 °C 994.5 hPa SSW 11.6 km/h 20.4 km/h 78 % 0 mm
23:46 14.7 °C 10.9 °C 994.5 hPa SW 5.3 km/h 16.7 km/h 78 % 0 mm
23:51 14.8 °C 11.1 °C 994.5 hPa SSW 15.6 km/h 25.9 km/h 78 % 0 mm
23:56 15 °C 11.2 °C 994.5 hPa SSE 3.2 km/h 16.7 km/h 78 % 0 mm
Crab Meadow Weather
Compliments of Weather Underground - 3 mb

Script developed by  Jim McMurry - jmcmurry@mwt.net Adapted for the template by  Wim van der Kuil - Leuven-Template.eu

Weather Terms: Warning - A warning is issued when a hazardous weather or hydrologic event is occurring, imminent or likely. A warning means weather conditions pose a threat to life or property. People in the path of the storm need to take protective action.